createdAt,value
2022-10-29T00:05:13.321Z,1.10
2022-10-29T00:10:27.923Z,0.90
2022-10-29T00:15:50.627Z,0.90
2022-10-29T00:21:11.100Z,1.20
2022-10-29T00:26:26.485Z,0.98
2022-10-29T00:31:44.435Z,1.08
2022-10-29T00:36:59.454Z,1.00
2022-10-29T00:42:15.312Z,1.00
2022-10-29T00:47:34.419Z,1.00
2022-10-29T00:52:55.249Z,0.90
2022-10-29T00:58:09.974Z,1.10
2022-10-29T01:03:28.276Z,1.30
2022-10-29T01:08:44.289Z,0.73
2022-10-29T01:14:09.538Z,1.10
2022-10-29T01:19:37.045Z,0.95
2022-10-29T01:25:33.975Z,0.80
2022-10-29T01:31:23.344Z,0.80
2022-10-29T01:36:45.797Z,0.65
2022-10-29T01:42:03.543Z,0.80
2022-10-29T01:47:23.684Z,0.90
2022-10-29T01:52:39.855Z,0.70
2022-10-29T01:57:56.078Z,0.85
2022-10-29T02:03:24.028Z,1.23
2022-10-29T02:08:44.682Z,0.73
2022-10-29T02:14:02.245Z,0.82
2022-10-29T02:19:19.256Z,1.55
2022-10-29T02:24:33.619Z,0.90
2022-10-29T02:29:47.339Z,0.90
2022-10-29T02:35:05.184Z,1.13
2022-10-29T02:40:20.183Z,1.05
2022-10-29T02:45:34.239Z,1.30
2022-10-29T02:50:51.093Z,0.90
2022-10-29T02:56:05.051Z,1.05
2022-10-29T03:01:18.624Z,0.80
2022-10-29T03:06:36.667Z,0.82
2022-10-29T03:11:51.191Z,1.00
2022-10-29T03:17:05.004Z,0.60
2022-10-29T03:22:23.075Z,1.33
2022-10-29T03:27:37.768Z,0.80
2022-10-29T03:32:54.166Z,0.80
2022-10-29T03:38:14.747Z,1.15
2022-10-29T03:43:30.135Z,1.02
2022-10-29T03:48:43.797Z,0.95
2022-10-29T03:54:00.745Z,1.30
2022-10-29T03:59:14.326Z,1.35
2022-10-29T04:04:28.491Z,0.82
2022-10-29T04:09:46.376Z,1.23
2022-10-29T04:14:59.963Z,1.00
2022-10-29T04:20:31.824Z,0.90
2022-10-29T04:28:36.797Z,0.80
2022-10-29T04:31:33.792Z,1.00
2022-10-29T04:36:48.823Z,1.05
2022-10-29T04:42:06.243Z,0.88
2022-10-29T04:47:20.292Z,1.10
2022-10-29T04:52:36.980Z,0.85
2022-10-29T04:57:59.781Z,0.73
2022-10-29T05:03:17.046Z,1.48
2022-10-29T05:08:32.340Z,1.02
2022-10-29T05:13:50.259Z,1.30
2022-10-29T05:19:06.164Z,0.85
2022-10-29T05:24:20.652Z,1.10
2022-10-29T05:29:38.891Z,0.63
2022-10-29T05:34:52.824Z,0.73
2022-10-29T05:40:07.608Z,1.30
2022-10-29T05:45:25.273Z,1.27
2022-10-29T05:50:41.342Z,0.88
2022-10-29T05:55:56.389Z,1.00
2022-10-29T06:01:16.671Z,1.00
2022-10-29T06:06:30.111Z,0.90
2022-10-29T06:11:37.862Z,1.10
2022-10-29T06:16:55.015Z,1.30
2022-10-29T06:22:09.840Z,1.35
2022-10-29T06:27:18.076Z,1.50
2022-10-29T06:32:37.661Z,1.40
2022-10-29T06:37:51.989Z,1.00
2022-10-29T06:43:14.641Z,2.22
2022-10-29T06:48:32.034Z,1.13
2022-10-29T06:53:46.211Z,1.10
2022-10-29T06:59:00.945Z,1.30
2022-10-29T07:04:21.262Z,1.10
2022-10-29T07:09:35.956Z,0.93
2022-10-29T07:14:50.841Z,2.05
2022-10-29T07:20:08.571Z,1.95
2022-10-29T07:25:23.626Z,1.10
2022-10-29T07:30:38.523Z,0.80
2022-10-29T07:35:57.075Z,1.00
2022-10-29T07:41:10.991Z,0.80
2022-10-29T07:46:25.779Z,1.20
2022-10-29T07:51:43.445Z,0.88
2022-10-29T07:57:01.429Z,1.00
2022-10-29T08:02:17.343Z,1.10
2022-10-29T08:07:37.571Z,1.00
2022-10-29T08:12:59.056Z,1.13
2022-10-29T08:18:19.909Z,0.82
2022-10-29T08:23:37.878Z,0.85
2022-10-29T08:28:52.933Z,1.10
2022-10-29T08:34:10.867Z,0.77
2022-10-29T08:39:29.903Z,1.45
2022-10-29T08:45:14.302Z,1.27
2022-10-29T08:50:33.898Z,1.20
2022-10-29T08:55:51.589Z,1.02
2022-10-29T09:01:09.087Z,0.93
2022-10-29T09:06:25.901Z,1.00
2022-10-29T09:11:58.790Z,1.20
2022-10-29T09:17:21.101Z,1.10
2022-10-29T09:22:39.791Z,2.42
2022-10-29T09:28:06.736Z,1.13
2022-10-29T09:33:25.574Z,1.27
2022-10-29T09:38:42.934Z,1.10
2022-10-29T09:44:05.253Z,1.00
2022-10-29T09:49:30.265Z,1.00
2022-10-29T09:54:45.977Z,1.25
2022-10-29T10:00:07.010Z,1.52
2022-10-29T10:05:28.264Z,1.20
2022-10-29T10:10:44.667Z,0.93
2022-10-29T10:16:06.075Z,1.90
2022-10-29T10:21:20.544Z,1.27
2022-10-29T10:26:41.975Z,1.40
2022-10-29T10:32:16.135Z,1.48
2022-10-29T10:37:31.419Z,1.27
2022-10-29T10:42:50.059Z,1.20
2022-10-29T10:48:07.596Z,1.35
2022-10-29T10:53:26.586Z,1.15
2022-10-29T10:58:44.420Z,2.60
2022-10-29T11:04:08.153Z,1.77
2022-10-29T11:09:29.670Z,1.10
2022-10-29T11:14:48.032Z,1.48
2022-10-29T11:20:06.823Z,1.45
2022-10-29T11:25:30.112Z,1.70
2022-10-29T11:30:49.231Z,2.13
2022-10-29T11:36:10.946Z,1.25
2022-10-29T11:41:33.365Z,2.13
2022-10-29T11:46:56.956Z,2.60
2022-10-29T11:52:18.422Z,1.52
2022-10-29T11:57:36.258Z,1.55
2022-10-29T12:03:14.682Z,1.77
2022-10-29T12:08:53.942Z,1.38
2022-10-29T12:14:15.636Z,1.67
2022-10-29T12:19:41.624Z,1.75
2022-10-29T12:25:23.969Z,1.60
2022-10-29T12:30:40.039Z,2.50
2022-10-29T12:35:59.395Z,1.88
2022-10-29T12:41:21.646Z,1.50
2022-10-29T12:46:43.782Z,1.50
2022-10-29T13:36:07.099Z,2.30
2022-10-29T13:41:25.713Z,1.48
2022-10-29T13:46:55.645Z,1.25
2022-10-29T13:52:15.801Z,1.48
2022-10-29T13:57:34.976Z,1.38
2022-10-29T14:03:07.000Z,1.58
2022-10-29T14:08:33.023Z,1.40
2022-10-29T14:13:53.339Z,1.40
2022-10-29T14:19:18.092Z,1.63
2022-10-29T14:24:35.996Z,1.25
2022-10-29T14:29:54.637Z,1.52
2022-10-29T14:35:10.890Z,1.65
2022-10-29T14:40:30.316Z,1.70
2022-10-29T14:45:43.918Z,1.90
2022-10-29T14:51:00.361Z,2.17
2022-10-29T14:56:20.116Z,1.90
2022-10-29T15:01:35.271Z,2.00
2022-10-29T15:06:50.569Z,1.70
2022-10-29T15:12:24.404Z,1.63
2022-10-29T15:17:38.091Z,2.08
2022-10-29T15:22:52.692Z,2.03
2022-10-29T15:28:12.784Z,1.70
2022-10-29T15:33:30.105Z,2.03
2022-10-29T15:39:11.087Z,1.80
2022-10-29T15:44:45.985Z,2.17
2022-10-29T15:50:00.057Z,2.03
2022-10-29T15:55:22.063Z,2.70
2022-10-29T16:00:42.339Z,2.17
2022-10-29T16:05:57.797Z,3.70
2022-10-29T16:11:13.551Z,3.85
2022-10-29T16:16:32.804Z,2.38
2022-10-29T16:21:46.690Z,1.85
2022-10-29T16:27:00.109Z,2.60
2022-10-29T16:32:18.811Z,2.42
2022-10-29T16:37:34.289Z,2.45
2022-10-29T16:42:49.908Z,2.25
2022-10-29T16:48:07.213Z,2.10
2022-10-29T16:53:21.372Z,2.72
2022-10-29T16:58:35.854Z,2.08
2022-10-29T17:03:53.350Z,2.00
2022-10-29T17:09:07.773Z,1.58
2022-10-29T17:14:21.861Z,1.67
2022-10-29T17:19:40.440Z,1.88
2022-10-29T17:24:53.975Z,1.42
2022-10-29T17:30:11.423Z,1.85
2022-10-29T17:35:30.696Z,2.00
2022-10-29T17:40:49.053Z,1.80
2022-10-29T17:46:04.279Z,1.70
2022-10-29T17:51:27.815Z,2.03
2022-10-29T17:56:44.232Z,1.70
2022-10-29T18:02:00.687Z,1.88
2022-10-29T18:07:20.163Z,2.20
2022-10-29T18:12:35.972Z,2.63
2022-10-29T18:23:11.770Z,1.63
2022-10-29T18:28:26.273Z,1.67
2022-10-29T18:33:42.288Z,2.17
2022-10-29T18:39:04.783Z,2.60
2022-10-29T18:44:19.154Z,1.77
2022-10-29T18:49:37.799Z,1.75
2022-10-29T18:54:55.874Z,2.00
2022-10-29T19:00:09.225Z,2.20
2022-10-29T19:05:25.934Z,2.20
2022-10-29T19:10:45.170Z,2.20
2022-10-29T19:16:00.817Z,2.40
2022-10-29T19:21:15.539Z,2.67
2022-10-29T19:26:33.535Z,2.00
2022-10-29T19:31:48.083Z,2.25
2022-10-29T19:37:03.851Z,1.80
2022-10-29T19:42:23.112Z,1.65
2022-10-29T19:47:36.353Z,1.90
2022-10-29T19:52:51.736Z,1.95
2022-10-29T19:58:09.186Z,2.63
2022-10-29T20:03:23.793Z,2.30
2022-10-29T20:08:38.517Z,1.92
2022-10-29T20:13:56.568Z,1.80
2022-10-29T20:19:11.488Z,2.13
2022-10-29T20:24:26.197Z,2.45
2022-10-29T20:29:43.077Z,3.10
2022-10-29T20:34:56.113Z,2.85
2022-10-29T20:40:10.720Z,3.15
2022-10-29T20:45:27.748Z,3.80
2022-10-29T20:50:41.591Z,4.22
2022-10-29T20:56:00.039Z,3.53
2022-10-29T21:01:26.112Z,3.30
2022-10-29T21:06:39.440Z,3.05
2022-10-29T21:11:52.934Z,2.72
2022-10-29T21:17:09.725Z,2.40
2022-10-29T21:22:25.298Z,1.80
2022-10-29T21:27:41.381Z,1.95
2022-10-29T21:32:58.296Z,1.70
2022-10-29T21:38:11.141Z,1.98
2022-10-29T21:43:29.711Z,1.60
2022-10-29T21:48:45.508Z,1.55
2022-10-29T21:53:59.059Z,1.90
2022-10-29T21:59:13.228Z,1.80
2022-10-29T22:04:29.993Z,1.25
2022-10-29T22:09:44.019Z,1.00
2022-10-29T22:15:00.173Z,1.10
2022-10-29T22:20:19.006Z,1.33
2022-10-29T22:25:33.620Z,1.40
2022-10-29T22:30:46.223Z,1.40
2022-10-29T22:36:02.287Z,1.45
2022-10-29T22:41:19.088Z,1.30
2022-10-29T22:46:31.979Z,1.33
2022-10-29T22:51:48.016Z,1.05
2022-10-29T22:57:01.791Z,1.60
2022-10-29T23:02:17.696Z,0.90
2022-10-29T23:07:35.412Z,1.13
2022-10-29T23:12:48.676Z,1.20
2022-10-29T23:18:02.884Z,1.05
2022-10-29T23:23:18.861Z,1.13
2022-10-29T23:28:31.818Z,0.98
2022-10-29T23:33:51.210Z,1.30
2022-10-29T23:39:08.504Z,1.10
2022-10-29T23:44:22.583Z,1.15
2022-10-29T23:49:36.738Z,0.80
2022-10-29T23:54:52.987Z,1.00
